Time;durP1;ratioP1;P1;durP2;ratioP2;P2;SDS_P1;SDS_P2;PMS_P1;PMS_P2;Temp;Humidity;BMP_temperature;BMP_pressure;BME280_temperature;BME280_humidity;BME280_pressure;Samples;Min_cycle;Max_cycle;Signal;HPM_P1;HPM_P2
2023/01/21 00:01:03;;;;;;;31.45;13.32;;;;;;;;;;5095482;28;20543;-82
2023/01/21 00:03:29;;;;;;;27.42;12.45;;;;;;;;;;5095101;28;20028;-82
2023/01/21 00:05:57;;;;;;;25.90;13.15;;;;;;;;;;5094498;28;20080;-82
2023/01/21 00:08:22;;;;;;;26.30;14.25;;;;;;;;;;5092579;28;20039;-82
2023/01/21 00:10:48;;;;;;;28.10;13.75;;;;;;;;;;5096222;28;20087;-82
2023/01/21 00:13:13;;;;;;;28.90;13.95;;;;;;;;;;5091866;28;20028;-82
2023/01/21 00:15:38;;;;;;;27.88;13.38;;;;;;;;;;5095350;28;20412;-82
2023/01/21 00:18:04;;;;;;;27.75;15.15;;;;;;;;;;5093843;28;20058;-82
2023/01/21 00:20:30;;;;;;;28.85;13.77;;;;;;;;;;5085685;28;20058;-82
2023/01/21 00:22:55;;;;;;;28.38;13.40;;;;;;;;;;5093508;28;20059;-81
2023/01/21 00:25:21;;;;;;;28.27;13.45;;;;;;;;;;5087701;28;20089;-82
2023/01/21 00:27:46;;;;;;;28.40;12.65;;;;;;;;;;5090362;28;20051;-82
2023/01/21 00:30:12;;;;;;;30.48;14.05;;;;;;;;;;5094006;28;20023;-82
2023/01/21 00:32:38;;;;;;;27.10;14.32;;;;;;;;;;5092610;28;20034;-82
2023/01/21 00:35:05;;;;;;;27.55;13.43;;;;;;;;;;5095398;28;20076;-81
2023/01/21 00:37:31;;;;;;;26.83;13.00;;;;;;;;;;5093145;28;20126;-82
2023/01/21 00:39:56;;;;;;;28.67;14.20;;;;;;;;;;5093161;28;20535;-82
2023/01/21 00:42:22;;;;;;;30.00;14.52;;;;;;;;;;5092057;28;20048;-82
2023/01/21 00:44:47;;;;;;;29.27;13.02;;;;;;;;;;5100711;28;20034;-82
2023/01/21 00:47:13;;;;;;;26.83;13.73;;;;;;;;;;5093536;28;20023;-82
2023/01/21 00:49:38;;;;;;;34.08;15.95;;;;;;;;;;5084984;28;20024;-82
2023/01/21 00:52:04;;;;;;;34.45;14.88;;;;;;;;;;5111908;27;20024;-82
2023/01/21 00:54:31;;;;;;;30.55;14.55;;;;;;;;;;5095672;28;20035;-82
2023/01/21 00:56:59;;;;;;;31.48;14.93;;;;;;;;;;5101084;28;20024;-82
2023/01/21 00:59:26;;;;;;;29.85;14.73;;;;;;;;;;5097648;28;20542;-82
2023/01/21 01:01:52;;;;;;;28.90;13.90;;;;;;;;;;5103671;28;20032;-82
2023/01/21 01:04:18;;;;;;;30.45;15.13;;;;;;;;;;5098331;28;20020;-82
2023/01/21 01:06:44;;;;;;;35.45;16.08;;;;;;;;;;5093817;28;20119;-82
2023/01/21 01:09:11;;;;;;;31.45;14.27;;;;;;;;;;5100097;28;20110;-82
2023/01/21 01:11:37;;;;;;;31.17;14.40;;;;;;;;;;5099884;27;20023;-82
2023/01/21 01:14:03;;;;;;;28.27;14.18;;;;;;;;;;5103290;27;20046;-82
2023/01/21 01:16:28;;;;;;;32.70;14.15;;;;;;;;;;5102341;28;20031;-82
2023/01/21 01:18:54;;;;;;;28.52;13.65;;;;;;;;;;5099780;28;20031;-82
2023/01/21 01:21:21;;;;;;;24.40;13.10;;;;;;;;;;5094319;28;20032;-82
2023/01/21 01:23:47;;;;;;;24.63;11.75;;;;;;;;;;5098380;28;20060;-82
2023/01/21 01:26:15;;;;;;;24.30;11.55;;;;;;;;;;5095641;28;20039;-82
2023/01/21 01:28:42;;;;;;;26.20;12.45;;;;;;;;;;5095179;28;20060;-82
2023/01/21 01:31:10;;;;;;;25.25;11.88;;;;;;;;;;5095308;28;20081;-83
2023/01/21 01:33:36;;;;;;;24.55;12.02;;;;;;;;;;5092421;28;20026;-82
2023/01/21 01:36:07;;;;;;;22.95;10.88;;;;;;;;;;5092918;28;20751;-82
2023/01/21 01:38:36;;;;;;;24.13;11.23;;;;;;;;;;5092608;28;20028;-82
2023/01/21 01:41:02;;;;;;;24.38;11.45;;;;;;;;;;5094783;28;20024;-83
2023/01/21 01:43:52;;;;;;;25.05;11.60;;;;;;;;;;5092174;28;20064;-82
2023/01/21 01:46:18;;;;;;;21.92;10.35;;;;;;;;;;5097575;27;20099;-82
2023/01/21 01:48:47;;;;;;;24.75;11.45;;;;;;;;;;5095670;28;20024;-82
2023/01/21 01:51:17;;;;;;;25.10;11.30;;;;;;;;;;5095363;28;20028;-82
2023/01/21 01:53:45;;;;;;;21.13;9.63;;;;;;;;;;5100696;28;20028;-82
2023/01/21 01:56:11;;;;;;;20.90;10.82;;;;;;;;;;5094144;28;20028;-82
2023/01/21 01:58:37;;;;;;;23.98;11.38;;;;;;;;;;5101091;28;20031;-82
2023/01/21 02:01:02;;;;;;;22.17;10.38;;;;;;;;;;5097437;28;20075;-82
2023/01/21 02:03:49;;;;;;;24.95;11.38;;;;;;;;;;5093808;28;20016;-82
2023/01/21 02:06:17;;;;;;;22.00;10.65;;;;;;;;;;5099027;28;20031;-82
2023/01/21 02:08:46;;;;;;;21.33;10.40;;;;;;;;;;5093815;28;20028;-82
2023/01/21 02:11:14;;;;;;;23.00;11.43;;;;;;;;;;5105469;27;20081;-82
2023/01/21 02:13:42;;;;;;;25.65;11.02;;;;;;;;;;5104958;28;20547;-82
2023/01/21 02:16:20;;;;;;;24.45;10.65;;;;;;;;;;5096566;28;20034;-82
2023/01/21 02:18:58;;;;;;;21.30;10.70;;;;;;;;;;5093151;28;20031;-82
2023/01/21 02:21:29;;;;;;;20.35;9.82;;;;;;;;;;5094772;28;20498;-82
2023/01/21 02:24:18;;;;;;;23.73;10.77;;;;;;;;;;5098852;28;20524;-82
2023/01/21 02:27:05;;;;;;;21.00;10.73;;;;;;;;;;5099429;28;20030;-82
2023/01/21 02:30:08;;;;;;;19.00;9.50;;;;;;;;;;5095104;28;20077;-82
2023/01/21 02:32:41;;;;;;;22.63;11.32;;;;;;;;;;5096328;28;20031;-82
2023/01/21 02:35:23;;;;;;;23.15;11.00;;;;;;;;;;5093913;28;20111;-82
2023/01/21 02:37:48;;;;;;;23.42;10.77;;;;;;;;;;5090109;28;20027;-82
2023/01/21 02:40:25;;;;;;;25.35;11.40;;;;;;;;;;5094754;28;20032;-82
2023/01/21 02:43:07;;;;;;;27.20;10.18;;;;;;;;;;5088415;28;20050;-82
2023/01/21 02:45:42;;;;;;;21.42;10.73;;;;;;;;;;5097713;28;20028;-82
2023/01/21 02:48:18;;;;;;;24.08;10.82;;;;;;;;;;5090550;28;20031;-82
2023/01/21 02:50:49;;;;;;;21.73;10.05;;;;;;;;;;5093423;28;20032;-82
2023/01/21 02:53:33;;;;;;;23.40;10.90;;;;;;;;;;5094513;28;20479;-82
2023/01/21 02:56:04;;;;;;;21.88;10.23;;;;;;;;;;5093329;28;20578;-82
2023/01/21 02:58:33;;;;;;;21.65;10.35;;;;;;;;;;5091551;28;20067;-82
2023/01/21 03:01:25;;;;;;;22.75;10.52;;;;;;;;;;5092751;28;20492;-82
2023/01/21 03:04:09;;;;;;;21.70;10.48;;;;;;;;;;5093620;28;20032;-82
2023/01/21 03:06:41;;;;;;;20.35;10.50;;;;;;;;;;5097668;28;20055;-82
2023/01/21 03:09:15;;;;;;;22.52;10.95;;;;;;;;;;5092278;28;20473;-82
2023/01/21 03:11:48;;;;;;;21.80;10.40;;;;;;;;;;5099521;28;20483;-82
2023/01/21 03:17:15;;;;;;;22.58;10.25;;;;;;;;;;5093084;28;20031;-81
2023/01/21 03:19:49;;;;;;;22.05;10.63;;;;;;;;;;5099861;28;20088;-82
2023/01/21 03:22:21;;;;;;;22.30;11.10;;;;;;;;;;5102230;28;20019;-82
2023/01/21 03:24:50;;;;;;;22.63;10.00;;;;;;;;;;5090217;28;20467;-82
2023/01/21 03:27:18;;;;;;;22.98;10.57;;;;;;;;;;5098677;28;20036;-82
2023/01/21 03:29:46;;;;;;;21.08;9.95;;;;;;;;;;5093884;28;20106;-82
2023/01/21 03:32:14;;;;;;;22.05;10.70;;;;;;;;;;5101107;28;20027;-81
2023/01/21 03:34:43;;;;;;;21.83;9.85;;;;;;;;;;5094314;28;20065;-82
2023/01/21 03:37:16;;;;;;;21.65;11.05;;;;;;;;;;5102525;28;20063;-82
2023/01/21 03:39:56;;;;;;;;;;;;;;;;;;5095384;28;20020;-82
2023/01/21 03:42:21;;;;;;;22.40;9.88;;;;;;;;;;5096356;28;19915;-82
2023/01/21 03:44:47;;;;;;;19.88;9.27;;;;;;;;;;5092928;28;20361;-81
2023/01/21 03:47:27;;;;;;;19.45;9.30;;;;;;;;;;5100916;28;20015;-81
2023/01/21 03:49:59;;;;;;;18.70;9.63;;;;;;;;;;5098466;28;20023;-82
2023/01/21 03:52:25;;;;;;;20.85;9.35;;;;;;;;;;5094068;28;20044;-82
2023/01/21 03:54:51;;;;;;;23.27;10.45;;;;;;;;;;5091619;28;20495;-82
2023/01/21 03:57:17;;;;;;;20.83;9.82;;;;;;;;;;5097770;28;20024;-82
2023/01/21 03:59:43;;;;;;;21.25;10.07;;;;;;;;;;5095517;28;20035;-82
2023/01/21 04:02:08;;;;;;;19.65;9.80;;;;;;;;;;5096566;28;20384;-82
2023/01/21 04:04:34;;;;;;;22.60;10.02;;;;;;;;;;5096349;28;20028;-81
2023/01/21 04:06:59;;;;;;;24.17;10.30;;;;;;;;;;5101188;28;20031;-81
2023/01/21 04:09:25;;;;;;;23.02;10.32;;;;;;;;;;5097747;28;20032;-82
2023/01/21 04:11:50;;;;;;;21.42;10.50;;;;;;;;;;5101272;27;20034;-82
2023/01/21 04:14:15;;;;;;;20.95;10.98;;;;;;;;;;5098996;28;20028;-81
2023/01/21 04:16:41;;;;;;;20.45;10.63;;;;;;;;;;5097252;28;20084;-81
2023/01/21 04:19:06;;;;;;;19.48;9.63;;;;;;;;;;5092378;28;20027;-81
2023/01/21 04:21:32;;;;;;;21.75;9.50;;;;;;;;;;5101702;28;20030;-81
2023/01/21 04:23:57;;;;;;;19.98;9.75;;;;;;;;;;5100333;28;20023;-82
2023/01/21 04:26:22;;;;;;;27.60;10.82;;;;;;;;;;5097469;28;20173;-81
2023/01/21 04:28:48;;;;;;;21.63;10.30;;;;;;;;;;5094630;28;20020;-82
2023/01/21 04:31:13;;;;;;;21.33;10.73;;;;;;;;;;5102060;28;20036;-81
2023/01/21 04:33:39;;;;;;;22.40;10.05;;;;;;;;;;5099631;28;20031;-82
2023/01/21 04:36:04;;;;;;;24.02;10.68;;;;;;;;;;5097657;28;20028;-81
2023/01/21 04:38:30;;;;;;;20.42;9.75;;;;;;;;;;5091282;28;20089;-81
2023/01/21 04:40:55;;;;;;;21.85;9.98;;;;;;;;;;5090637;28;20063;-81
2023/01/21 04:43:20;;;;;;;22.05;9.55;;;;;;;;;;5099803;28;20454;-81
2023/01/21 04:45:46;;;;;;;22.02;10.65;;;;;;;;;;5104087;28;20036;-82
2023/01/21 04:48:12;;;;;;;20.33;9.82;;;;;;;;;;5100504;28;20044;-81
2023/01/21 04:50:37;;;;;;;18.52;9.65;;;;;;;;;;5106538;28;20114;-81
2023/01/21 04:53:03;;;;;;;24.27;10.18;;;;;;;;;;5096070;28;20020;-81
2023/01/21 04:55:28;;;;;;;22.10;9.30;;;;;;;;;;5101651;28;20027;-81
2023/01/21 04:57:54;;;;;;;22.85;9.82;;;;;;;;;;5097666;28;20032;-82
2023/01/21 05:00:19;;;;;;;19.20;9.20;;;;;;;;;;5097097;28;20043;-81
2023/01/21 05:02:45;;;;;;;25.35;10.77;;;;;;;;;;5082854;28;20024;-81
2023/01/21 05:05:10;;;;;;;20.05;8.90;;;;;;;;;;5094855;28;20028;-81
2023/01/21 05:07:35;;;;;;;22.10;10.05;;;;;;;;;;5091668;28;20036;-82
2023/01/21 05:10:01;;;;;;;23.83;9.75;;;;;;;;;;5098057;28;20023;-81
2023/01/21 05:12:27;;;;;;;23.35;10.43;;;;;;;;;;5101335;27;20031;-81
2023/01/21 05:14:53;;;;;;;20.77;8.75;;;;;;;;;;5097205;28;20028;-81
2023/01/21 05:17:19;;;;;;;22.50;10.18;;;;;;;;;;5095296;28;20103;-81
2023/01/21 05:19:45;;;;;;;20.85;10.00;;;;;;;;;;5104009;28;20106;-81
2023/01/21 05:22:10;;;;;;;21.85;10.25;;;;;;;;;;5094853;28;20058;-82
2023/01/21 05:24:36;;;;;;;20.73;9.27;;;;;;;;;;5090217;28;21540;-81
2023/01/21 05:27:01;;;;;;;21.50;8.90;;;;;;;;;;5090909;28;20028;-82
2023/01/21 05:29:26;;;;;;;20.98;10.23;;;;;;;;;;5095218;28;20024;-82
2023/01/21 05:31:52;;;;;;;21.00;9.75;;;;;;;;;;5095483;28;20480;-82
2023/01/21 05:34:17;;;;;;;25.20;11.30;;;;;;;;;;5094338;28;20027;-81
2023/01/21 05:36:43;;;;;;;23.58;9.90;;;;;;;;;;5084725;28;20088;-81
2023/01/21 05:39:08;;;;;;;22.30;10.18;;;;;;;;;;5092609;28;20027;-81
2023/01/21 05:41:33;;;;;;;20.95;9.60;;;;;;;;;;5090561;28;21333;-81
2023/01/21 05:43:59;;;;;;;22.77;9.40;;;;;;;;;;5089218;28;20030;-82
2023/01/21 05:46:24;;;;;;;22.65;10.23;;;;;;;;;;5093127;28;20027;-81
2023/01/21 05:48:50;;;;;;;24.35;10.05;;;;;;;;;;5095735;28;20557;-81
2023/01/21 05:51:15;;;;;;;21.55;9.10;;;;;;;;;;5100027;28;20434;-81
2023/01/21 05:53:40;;;;;;;21.65;9.52;;;;;;;;;;5095737;28;20034;-81
2023/01/21 05:56:06;;;;;;;19.27;10.10;;;;;;;;;;5095183;28;20024;-82
2023/01/21 05:58:32;;;;;;;20.52;9.60;;;;;;;;;;5098550;28;20027;-81
2023/01/21 06:00:58;;;;;;;20.58;9.85;;;;;;;;;;5095544;28;20038;-81
2023/01/21 06:03:24;;;;;;;21.23;9.38;;;;;;;;;;5096713;28;20274;-81
2023/01/21 06:05:50;;;;;;;21.17;9.65;;;;;;;;;;5100893;28;20032;-81
2023/01/21 06:08:16;;;;;;;19.90;9.13;;;;;;;;;;5098893;28;20502;-81
2023/01/21 06:10:41;;;;;;;21.42;10.20;;;;;;;;;;5105119;27;20023;-81
2023/01/21 06:13:10;;;;;;;20.95;9.75;;;;;;;;;;5099022;28;20038;-81
2023/01/21 06:15:35;;;;;;;20.13;8.52;;;;;;;;;;5094551;28;20503;-81
2023/01/21 06:18:01;;;;;;;21.05;9.82;;;;;;;;;;5084845;28;20111;-81
2023/01/21 06:20:30;;;;;;;21.92;10.90;;;;;;;;;;5091614;28;20043;-81
2023/01/21 06:22:56;;;;;;;19.23;9.77;;;;;;;;;;5095363;28;20091;-81
2023/01/21 06:25:23;;;;;;;19.83;9.07;;;;;;;;;;5095730;28;20039;-81
2023/01/21 06:27:49;;;;;;;20.88;9.90;;;;;;;;;;5093606;28;20031;-81
2023/01/21 06:30:14;;;;;;;25.00;10.48;;;;;;;;;;5097818;28;20426;-81
2023/01/21 06:32:40;;;;;;;19.42;9.90;;;;;;;;;;5092254;28;20614;-81
2023/01/21 06:35:05;;;;;;;27.45;10.60;;;;;;;;;;5095904;28;20404;-81
2023/01/21 06:37:31;;;;;;;21.83;10.57;;;;;;;;;;5096401;28;20097;-81
2023/01/21 06:39:56;;;;;;;25.17;10.20;;;;;;;;;;5102015;28;20563;-81
2023/01/21 06:42:22;;;;;;;26.92;10.63;;;;;;;;;;5092597;28;20122;-81
2023/01/21 06:44:47;;;;;;;20.67;10.10;;;;;;;;;;5091114;28;20027;-81
2023/01/21 06:47:13;;;;;;;24.95;10.15;;;;;;;;;;5094750;28;20034;-81
2023/01/21 06:49:39;;;;;;;20.95;9.68;;;;;;;;;;5090456;28;20383;-81
2023/01/21 06:52:04;;;;;;;25.70;10.88;;;;;;;;;;5090988;28;20112;-81
2023/01/21 06:54:30;;;;;;;22.75;11.05;;;;;;;;;;5096654;28;20070;-81
2023/01/21 06:56:55;;;;;;;23.58;10.60;;;;;;;;;;5099124;28;20540;-81
2023/01/21 06:59:21;;;;;;;24.40;10.90;;;;;;;;;;5092814;28;20105;-81
2023/01/21 07:01:46;;;;;;;23.27;10.32;;;;;;;;;;5096693;28;20102;-81
2023/01/21 07:04:12;;;;;;;22.88;10.25;;;;;;;;;;5097207;28;20061;-81
2023/01/21 07:06:38;;;;;;;25.42;10.50;;;;;;;;;;5094657;28;20073;-81
2023/01/21 07:09:04;;;;;;;23.70;11.55;;;;;;;;;;5096401;28;20035;-81
2023/01/21 07:11:29;;;;;;;27.42;11.90;;;;;;;;;;5094677;28;20103;-81
2023/01/21 07:13:55;;;;;;;24.95;11.77;;;;;;;;;;5095382;28;20046;-81
2023/01/21 07:16:21;;;;;;;26.67;11.50;;;;;;;;;;5102809;28;20051;-81
2023/01/21 07:18:46;;;;;;;27.13;11.68;;;;;;;;;;5102440;28;20031;-81
2023/01/21 07:21:11;;;;;;;28.08;10.95;;;;;;;;;;5095416;28;20020;-81
2023/01/21 07:23:37;;;;;;;30.17;11.43;;;;;;;;;;5091584;28;20038;-81
2023/01/21 07:26:02;;;;;;;30.27;12.05;;;;;;;;;;5095480;28;20027;-81
2023/01/21 07:28:28;;;;;;;26.45;11.38;;;;;;;;;;5090989;28;20028;-81
2023/01/21 07:30:53;;;;;;;27.52;11.57;;;;;;;;;;5092454;28;20027;-81
2023/01/21 07:33:19;;;;;;;27.98;12.38;;;;;;;;;;5097752;28;20031;-81
2023/01/21 07:35:44;;;;;;;29.08;12.88;;;;;;;;;;5105032;28;20082;-81
2023/01/21 07:38:09;;;;;;;32.15;12.48;;;;;;;;;;5103568;28;20495;-80
2023/01/21 07:40:35;;;;;;;33.38;12.93;;;;;;;;;;5103937;28;20103;-81
2023/01/21 07:43:00;;;;;;;27.77;11.60;;;;;;;;;;5109449;28;20024;-80
2023/01/21 07:45:26;;;;;;;26.08;12.43;;;;;;;;;;5099004;28;20027;-81
2023/01/21 07:47:51;;;;;;;32.28;12.48;;;;;;;;;;5102600;28;20024;-81
2023/01/21 07:50:16;;;;;;;30.05;12.30;;;;;;;;;;5103532;28;20039;-81
2023/01/21 07:52:42;;;;;;;29.83;12.60;;;;;;;;;;5101798;28;20020;-81
2023/01/21 07:55:09;;;;;;;28.98;12.05;;;;;;;;;;5100908;28;20061;-81
2023/01/21 07:57:34;;;;;;;30.40;11.95;;;;;;;;;;5096972;28;20035;-81
2023/01/21 08:00:00;;;;;;;31.83;12.75;;;;;;;;;;5107100;28;20105;-81
2023/01/21 08:02:25;;;;;;;31.05;12.23;;;;;;;;;;5101297;28;20395;-81
2023/01/21 08:04:50;;;;;;;29.33;12.15;;;;;;;;;;5107751;28;20016;-81
2023/01/21 08:07:16;;;;;;;31.52;12.43;;;;;;;;;;5096251;28;20100;-81
2023/01/21 08:09:41;;;;;;;30.98;12.50;;;;;;;;;;5099941;28;20026;-81
2023/01/21 08:12:07;;;;;;;32.60;12.55;;;;;;;;;;5103110;28;20020;-81
2023/01/21 08:14:33;;;;;;;29.13;11.23;;;;;;;;;;5100455;28;20365;-81
2023/01/21 08:17:00;;;;;;;31.05;12.38;;;;;;;;;;5100467;28;20031;-81
2023/01/21 08:19:26;;;;;;;32.22;12.48;;;;;;;;;;5099900;28;20494;-81
2023/01/21 08:21:52;;;;;;;31.77;11.77;;;;;;;;;;5101013;28;20027;-81
2023/01/21 08:24:17;;;;;;;30.60;12.68;;;;;;;;;;5100963;28;20030;-81
2023/01/21 08:26:43;;;;;;;27.90;12.63;;;;;;;;;;5107347;28;20031;-81
2023/01/21 08:29:08;;;;;;;29.80;11.77;;;;;;;;;;5097651;28;20028;-80
2023/01/21 08:31:34;;;;;;;29.98;11.32;;;;;;;;;;5097667;28;20758;-81
2023/01/21 08:33:59;;;;;;;31.45;11.90;;;;;;;;;;5091784;28;20024;-81
2023/01/21 08:36:25;;;;;;;29.00;11.55;;;;;;;;;;5093139;28;20031;-81
2023/01/21 08:39:05;;;;;;;31.20;13.23;;;;;;;;;;5092693;28;20028;-81
2023/01/21 08:41:31;;;;;;;28.75;11.25;;;;;;;;;;5093491;28;20124;-81
2023/01/21 08:43:56;;;;;;;28.55;10.93;;;;;;;;;;5095143;28;20020;-81
2023/01/21 08:46:22;;;;;;;33.58;11.25;;;;;;;;;;5097402;28;20480;-81
2023/01/21 08:48:47;;;;;;;32.10;12.23;;;;;;;;;;5094264;28;20073;-81
2023/01/21 08:51:13;;;;;;;29.00;10.52;;;;;;;;;;5098648;28;20114;-81
2023/01/21 08:53:38;;;;;;;30.48;12.00;;;;;;;;;;5101063;28;20078;-81
2023/01/21 08:56:04;;;;;;;28.70;10.77;;;;;;;;;;5096257;27;20024;-81
2023/01/21 08:58:31;;;;;;;30.67;11.23;;;;;;;;;;5100879;28;20028;-80
2023/01/21 09:00:56;;;;;;;34.80;13.05;;;;;;;;;;5093800;28;20517;-81
2023/01/21 09:03:22;;;;;;;30.25;11.48;;;;;;;;;;5100353;28;20028;-81
2023/01/21 09:05:50;;;;;;;28.90;10.68;;;;;;;;;;5097201;28;20028;-81
2023/01/21 09:08:16;;;;;;;28.60;11.63;;;;;;;;;;5096631;28;20031;-81
2023/01/21 09:11:00;;;;;;;32.08;12.15;;;;;;;;;;5107245;27;20027;-81
2023/01/21 09:13:26;;;;;;;29.52;10.93;;;;;;;;;;5093500;28;20034;-81
2023/01/21 09:15:52;;;;;;;30.77;10.57;;;;;;;;;;5102375;28;20091;-81
2023/01/21 09:18:17;;;;;;;32.25;11.35;;;;;;;;;;5104556;28;20055;-81
2023/01/21 09:20:43;;;;;;;30.48;9.95;;;;;;;;;;5099218;28;20031;-81
2023/01/21 09:23:22;;;;;;;31.77;11.07;;;;;;;;;;5096056;28;20701;-81
2023/01/21 09:25:52;;;;;;;27.75;10.43;;;;;;;;;;5087847;28;20027;-81
2023/01/21 09:28:18;;;;;;;26.20;10.63;;;;;;;;;;5090060;28;20028;-82
2023/01/21 09:30:43;;;;;;;28.30;10.90;;;;;;;;;;5091784;28;20069;-81
2023/01/21 09:33:09;;;;;;;29.65;11.13;;;;;;;;;;5097935;28;20425;-81
2023/01/21 09:35:34;;;;;;;30.42;11.68;;;;;;;;;;5102854;28;20024;-81
2023/01/21 09:38:00;;;;;;;31.20;11.75;;;;;;;;;;5096025;28;20103;-81
2023/01/21 09:40:25;;;;;;;28.13;11.27;;;;;;;;;;5099042;28;20028;-81
2023/01/21 09:42:50;;;;;;;26.40;10.43;;;;;;;;;;5099573;27;20026;-81
2023/01/21 09:45:17;;;;;;;33.20;11.15;;;;;;;;;;5094998;28;20085;-81
2023/01/21 09:47:45;;;;;;;33.05;11.25;;;;;;;;;;5094224;28;20431;-81
2023/01/21 09:50:21;;;;;;;33.33;11.30;;;;;;;;;;5103449;28;20032;-81
2023/01/21 09:52:51;;;;;;;33.95;12.18;;;;;;;;;;5098085;28;20054;-81
2023/01/21 09:55:20;;;;;;;31.77;12.02;;;;;;;;;;5093184;28;20396;-81
2023/01/21 09:58:08;;;;;;;30.90;11.10;;;;;;;;;;5094102;28;20429;-80
2023/01/21 10:00:45;;;;;;;29.83;11.55;;;;;;;;;;5099824;28;20038;-80
2023/01/21 10:03:46;;;;;;;27.00;9.93;;;;;;;;;;5097772;28;20407;-81
2023/01/21 10:06:26;;;;;;;26.98;11.27;;;;;;;;;;5061854;28;20396;-81
2023/01/21 10:09:04;;;;;;;29.15;11.43;;;;;;;;;;5094808;28;20033;-81
2023/01/21 10:11:40;;;;;;;29.05;11.52;;;;;;;;;;5105955;27;20038;-80
2023/01/21 10:14:41;;;;;;;27.77;10.63;;;;;;;;;;5099169;28;20055;-80
2023/01/21 10:17:59;;;;;;;26.77;10.00;;;;;;;;;;5098232;28;20038;-80
2023/01/21 10:20:32;;;;;;;27.05;9.70;;;;;;;;;;5072747;28;20055;-81
2023/01/21 10:23:06;;;;;;;30.50;12.18;;;;;;;;;;5095594;28;20398;-80
2023/01/21 10:25:33;;;;;;;27.52;12.07;;;;;;;;;;5093609;28;20032;-81
2023/01/21 10:28:12;;;;;;;27.42;10.70;;;;;;;;;;5096410;28;20388;-81
2023/01/21 10:30:42;;;;;;;29.85;11.95;;;;;;;;;;5099486;28;20396;-81
2023/01/21 10:33:17;;;;;;;29.15;11.10;;;;;;;;;;5091890;28;20165;-81
2023/01/21 10:36:04;;;;;;;27.85;10.90;;;;;;;;;;5097961;28;20427;-80
2023/01/21 10:38:45;;;;;;;25.70;9.95;;;;;;;;;;5111308;27;20016;-81
2023/01/21 10:41:51;;;;;;;28.23;10.98;;;;;;;;;;5093273;28;20360;-80
2023/01/21 10:44:44;;;;;;;28.33;10.75;;;;;;;;;;5095228;27;20030;-81
2023/01/21 10:47:36;;;;;;;35.03;12.57;;;;;;;;;;5094635;27;20049;-81
2023/01/21 10:50:23;;;;;;;33.33;13.02;;;;;;;;;;5095549;28;20015;-81
2023/01/21 10:52:56;;;;;;;35.88;14.27;;;;;;;;;;5091116;28;20062;-81
2023/01/21 10:55:47;;;;;;;33.10;13.25;;;;;;;;;;5098187;28;20031;-81
2023/01/21 10:58:35;;;;;;;29.95;11.52;;;;;;;;;;5086671;28;20088;-80
2023/01/21 11:01:05;;;;;;;26.90;11.57;;;;;;;;;;5093352;28;20024;-80
2023/01/21 11:03:37;;;;;;;31.77;10.95;;;;;;;;;;5094447;28;20020;-80
2023/01/21 11:06:05;;;;;;;27.13;11.47;;;;;;;;;;5097750;28;20038;-81
2023/01/21 11:08:31;;;;;;;29.20;10.52;;;;;;;;;;5094654;28;20272;-81
2023/01/21 11:10:58;;;;;;;28.02;10.60;;;;;;;;;;5096306;28;20150;-81
2023/01/21 11:13:23;;;;;;;29.33;12.43;;;;;;;;;;5094366;28;20024;-80
2023/01/21 11:15:54;;;;;;;29.20;11.77;;;;;;;;;;5102169;28;20034;-81
2023/01/21 11:18:34;;;;;;;30.65;11.82;;;;;;;;;;5099881;28;20023;-81
2023/01/21 11:21:03;;;;;;;27.63;11.68;;;;;;;;;;5095100;28;20027;-81
2023/01/21 11:23:31;;;;;;;31.58;12.10;;;;;;;;;;5092139;28;20028;-81
2023/01/21 11:26:05;;;;;;;35.75;13.23;;;;;;;;;;5095347;28;20499;-80
2023/01/21 11:28:32;;;;;;;33.40;13.07;;;;;;;;;;5099250;28;20043;-81
2023/01/21 11:31:13;;;;;;;35.08;13.57;;;;;;;;;;5097436;28;20027;-81
2023/01/21 11:33:41;;;;;;;33.45;12.98;;;;;;;;;;5093218;28;20107;-81
2023/01/21 11:36:14;;;;;;;27.17;11.25;;;;;;;;;;5095829;28;20027;-81
2023/01/21 11:38:40;;;;;;;26.45;11.60;;;;;;;;;;5099371;28;20459;-81
2023/01/21 11:41:12;;;;;;;29.75;11.73;;;;;;;;;;5097980;28;20415;-81
2023/01/21 11:43:42;;;;;;;27.83;11.40;;;;;;;;;;5092481;28;20043;-81
2023/01/21 11:46:38;;;;;;;31.38;11.88;;;;;;;;;;5096150;28;20116;-82
2023/01/21 11:49:07;;;;;;;29.23;10.95;;;;;;;;;;5098254;28;20031;-81
2023/01/21 11:51:38;;;;;;;27.50;11.35;;;;;;;;;;5096144;28;20380;-81
2023/01/21 11:54:13;;;;;;;29.60;12.43;;;;;;;;;;5092932;28;20428;-81
2023/01/21 11:56:43;;;;;;;29.42;10.43;;;;;;;;;;5093249;28;20024;-81
2023/01/21 11:59:37;;;;;;;25.38;11.02;;;;;;;;;;5103573;28;20435;-81
2023/01/21 12:02:06;;;;;;;26.48;11.45;;;;;;;;;;5102837;28;20032;-81
2023/01/21 12:04:34;;;;;;;27.00;11.05;;;;;;;;;;5096170;28;20027;-81
2023/01/21 12:07:00;;;;;;;25.98;11.07;;;;;;;;;;5094930;28;20106;-81
2023/01/21 12:09:27;;;;;;;29.27;10.63;;;;;;;;;;5098709;28;20447;-81
2023/01/21 12:12:29;;;;;;;27.25;10.77;;;;;;;;;;5098809;28;20031;-82
2023/01/21 12:14:58;;;;;;;24.50;10.85;;;;;;;;;;5101458;28;20380;-81
2023/01/21 12:17:54;;;;;;;28.52;11.73;;;;;;;;;;5097347;28;20032;-81
2023/01/21 12:20:29;;;;;;;25.30;9.68;;;;;;;;;;5096550;28;20107;-81
2023/01/21 12:23:42;;;;;;;26.08;10.07;;;;;;;;;;5099897;28;20097;-82
2023/01/21 12:26:32;;;;;;;28.80;10.38;;;;;;;;;;5063933;28;20027;-81
2023/01/21 12:29:17;;;;;;;25.10;10.23;;;;;;;;;;5099353;28;20454;-81
2023/01/21 12:31:50;;;;;;;24.38;10.25;;;;;;;;;;5098578;27;20034;-81
2023/01/21 12:34:27;;;;;;;;;;;;;;;;;;5099556;28;20438;-81
2023/01/21 12:36:59;;;;;;;22.50;9.07;;;;;;;;;;5097125;28;19952;-82
2023/01/21 12:39:35;;;;;;;24.00;10.15;;;;;;;;;;5101543;28;20037;-82
2023/01/21 12:42:05;;;;;;;25.63;10.88;;;;;;;;;;5097645;28;20030;-82
2023/01/21 12:44:39;;;;;;;25.27;9.45;;;;;;;;;;5102146;28;20023;-82
2023/01/21 12:47:13;;;;;;;26.85;11.25;;;;;;;;;;5098725;28;20027;-81
2023/01/21 12:50:02;;;;;;;26.17;11.02;;;;;;;;;;5106278;28;20472;-82
2023/01/21 12:52:42;;;;;;;25.45;10.23;;;;;;;;;;5103788;28;20872;-81
2023/01/21 12:55:22;;;;;;;25.73;9.70;;;;;;;;;;5102367;28;20031;-82
2023/01/21 12:57:56;;;;;;;25.52;10.50;;;;;;;;;;5103328;28;20027;-82
2023/01/21 13:00:26;;;;;;;22.25;9.50;;;;;;;;;;5095814;28;20034;-82
2023/01/21 13:03:20;;;;;;;23.83;10.32;;;;;;;;;;5102629;28;20038;-82
2023/01/21 13:05:54;;;;;;;23.77;8.82;;;;;;;;;;5101514;28;20020;-81
2023/01/21 13:08:26;;;;;;;25.48;11.02;;;;;;;;;;5101845;28;20031;-81
2023/01/21 13:11:17;;;;;;;26.02;10.65;;;;;;;;;;5102515;27;20504;-82
2023/01/21 13:14:14;;;;;;;22.35;10.02;;;;;;;;;;5098621;28;20391;-82
2023/01/21 13:16:44;;;;;;;23.67;10.52;;;;;;;;;;5097073;28;20035;-82
2023/01/21 13:19:13;;;;;;;22.80;10.43;;;;;;;;;;5095996;28;20035;-82
2023/01/21 13:21:47;;;;;;;20.75;9.35;;;;;;;;;;5097710;28;20028;-82
2023/01/21 13:24:12;;;;;;;23.35;9.75;;;;;;;;;;5107534;28;20034;-82
2023/01/21 13:26:51;;;;;;;24.27;10.27;;;;;;;;;;5095784;28;20028;-82
2023/01/21 13:29:28;;;;;;;21.48;9.45;;;;;;;;;;5095402;28;20054;-81
2023/01/21 13:32:27;;;;;;;20.63;8.45;;;;;;;;;;5098990;28;20560;-82
2023/01/21 13:35:11;;;;;;;22.23;9.38;;;;;;;;;;5099176;28;20023;-82
2023/01/21 13:37:47;;;;;;;22.08;8.88;;;;;;;;;;5102067;28;20054;-82
2023/01/21 13:40:36;;;;;;;22.55;9.48;;;;;;;;;;5107149;28;20019;-81
2023/01/21 13:43:17;;;;;;;21.15;8.65;;;;;;;;;;5094468;28;20058;-82
2023/01/21 13:45:52;;;;;;;22.77;9.00;;;;;;;;;;5096243;28;20089;-82
2023/01/21 13:48:28;;;;;;;18.90;8.60;;;;;;;;;;5102683;28;20118;-82
2023/01/21 13:51:04;;;;;;;19.27;8.00;;;;;;;;;;5096346;28;20488;-82
2023/01/21 13:53:37;;;;;;;19.92;9.00;;;;;;;;;;5094377;28;20039;-82
2023/01/21 13:56:41;;;;;;;19.67;8.88;;;;;;;;;;5101783;28;20593;-82
2023/01/21 13:59:14;;;;;;;19.63;9.20;;;;;;;;;;5099556;28;20023;-82
2023/01/21 14:01:48;;;;;;;20.67;9.13;;;;;;;;;;5093098;28;20391;-81
2023/01/21 14:04:33;;;;;;;19.10;8.73;;;;;;;;;;5110226;28;20024;-82
2023/01/21 14:07:11;;;;;;;17.35;7.80;;;;;;;;;;5098843;28;20801;-82
2023/01/21 14:09:43;;;;;;;19.67;9.60;;;;;;;;;;5092163;28;20035;-82
2023/01/21 14:12:46;;;;;;;18.92;9.07;;;;;;;;;;5095178;28;20532;-81
2023/01/21 14:15:22;;;;;;;19.45;7.70;;;;;;;;;;5096113;28;20442;-82
2023/01/21 14:17:58;;;;;;;19.27;8.77;;;;;;;;;;5099302;28;20051;-82
2023/01/21 14:20:38;;;;;;;19.38;8.10;;;;;;;;;;5093227;28;20031;-81
2023/01/21 14:23:09;;;;;;;18.95;8.88;;;;;;;;;;5099130;28;20505;-82
2023/01/21 14:25:58;;;;;;;20.33;7.93;;;;;;;;;;5097057;28;20163;-81
2023/01/21 14:28:50;;;;;;;18.85;7.93;;;;;;;;;;5097068;28;20042;-82
2023/01/21 14:31:19;;;;;;;17.10;7.35;;;;;;;;;;5097608;27;20071;-82
2023/01/21 14:33:54;;;;;;;18.55;7.80;;;;;;;;;;5104554;27;20048;-81
2023/01/21 14:36:29;;;;;;;17.83;7.78;;;;;;;;;;5099164;28;20027;-81
2023/01/21 14:39:06;;;;;;;18.27;8.00;;;;;;;;;;5095833;28;20030;-81
2023/01/21 14:42:01;;;;;;;18.30;7.53;;;;;;;;;;5089870;28;20136;-81
2023/01/21 14:44:48;;;;;;;14.40;6.70;;;;;;;;;;5094390;28;20032;-81
2023/01/21 14:47:53;;;;;;;14.30;6.80;;;;;;;;;;5093480;28;20023;-82